Time;durP1;ratioP1;P1;durP2;ratioP2;P2;SDS_P1;SDS_P2;PMS_P1;PMS_P2;Temp;Humidity;BMP_temperature;BMP_pressure;BME280_temperature;BME280_humidity;BME280_pressure;Samples;Min_cycle;Max_cycle;Signal;HPM_P1;HPM_P2
2023/05/06 00:02:05;;;;;;;;;;;12.20;99.90;;;;;;5090339;28;20357;-67
2023/05/06 00:04:32;;;;;;;;;;;12.10;99.90;;;;;;5091659;28;20461;-67
2023/05/06 00:06:59;;;;;;;;;;;12.10;99.90;;;;;;5090764;28;19924;-67
2023/05/06 00:09:25;;;;;;;;;;;12.10;99.90;;;;;;5091733;28;19928;-67
2023/05/06 00:11:52;;;;;;;;;;;12.00;99.90;;;;;;5085685;28;19989;-67
2023/05/06 00:14:19;;;;;;;;;;;11.90;99.90;;;;;;5091597;28;20345;-67
2023/05/06 00:16:47;;;;;;;;;;;11.90;99.90;;;;;;5091534;28;20296;-67
2023/05/06 00:19:14;;;;;;;;;;;11.90;99.90;;;;;;5091505;28;20399;-67
2023/05/06 00:21:41;;;;;;;;;;;11.80;99.90;;;;;;5091674;28;19924;-68
2023/05/06 00:24:07;;;;;;;;;;;11.70;99.90;;;;;;5091402;28;19924;-68
2023/05/06 00:26:34;;;;;;;;;;;11.70;99.90;;;;;;5090273;28;19924;-68
2023/05/06 00:29:01;;;;;;;;;;;11.60;99.90;;;;;;5087469;28;19924;-67
2023/05/06 00:31:28;;;;;;;;;;;11.60;99.90;;;;;;5087679;28;19931;-67
2023/05/06 00:33:56;;;;;;;;;;;11.50;99.90;;;;;;5091470;28;19969;-68
2023/05/06 00:36:23;;;;;;;;;;;11.40;99.90;;;;;;5090873;28;19924;-67
2023/05/06 00:38:51;;;;;;;;;;;11.40;99.90;;;;;;5090782;28;19924;-67
2023/05/06 00:41:17;;;;;;;;;;;11.40;99.90;;;;;;5090965;28;19992;-67
2023/05/06 00:43:44;;;;;;;;;;;11.40;99.90;;;;;;5089205;28;19970;-68
2023/05/06 00:46:11;;;;;;;;;;;11.30;99.90;;;;;;5085796;28;19924;-67
2023/05/06 00:48:38;;;;;;;;;;;11.30;99.90;;;;;;5089936;28;19924;-67
2023/05/06 00:51:07;;;;;;;;;;;11.30;99.90;;;;;;5090051;28;19967;-67
2023/05/06 00:53:34;;;;;;;;;;;11.30;99.90;;;;;;5085866;28;19928;-66
2023/05/06 00:56:01;;;;;;;;;;;11.30;99.90;;;;;;5090752;28;20018;-67
2023/05/06 00:58:27;;;;;;;;;;;11.20;99.90;;;;;;5090989;28;19928;-67
2023/05/06 01:00:55;;;;;;;;;;;11.10;99.90;;;;;;5084526;28;19964;-67
2023/05/06 01:03:22;;;;;;;;;;;11.00;99.90;;;;;;5087988;28;20031;-68
2023/05/06 01:05:51;;;;;;;;;;;10.90;99.90;;;;;;5090600;28;20406;-67
2023/05/06 01:08:23;;;;;;;;;;;10.90;99.90;;;;;;5090795;28;19924;-66
2023/05/06 01:10:53;;;;;;;;;;;10.90;99.90;;;;;;5090698;28;19932;-67
2023/05/06 01:13:23;;;;;;;;;;;10.90;99.90;;;;;;5091063;28;19924;-67
2023/05/06 01:15:52;;;;;;;;;;;10.80;99.90;;;;;;5090093;28;19967;-67
2023/05/06 01:18:21;;;;;;;;;;;10.90;99.90;;;;;;5088043;28;19924;-66
2023/05/06 01:20:49;;;;;;;;;;;10.90;99.90;;;;;;5088747;28;19924;-66
2023/05/06 01:23:18;;;;;;;;;;;10.80;99.90;;;;;;5090487;28;19928;-66
2023/05/06 01:25:45;;;;;;;;;;;10.70;99.90;;;;;;5089777;28;19977;-66
2023/05/06 01:28:13;;;;;;;;;;;10.70;99.90;;;;;;5086962;28;20302;-66
2023/05/06 01:30:46;;;;;;;;;;;10.60;99.90;;;;;;5090394;28;20326;-66
2023/05/06 01:33:16;;;;;;;;;;;10.60;99.90;;;;;;5090380;28;19988;-67
2023/05/06 01:35:46;;;;;;;;;;;10.60;99.90;;;;;;5090159;28;19928;-65
2023/05/06 01:38:17;;;;;;;;;;;10.50;99.90;;;;;;5090416;28;19927;-66
2023/05/06 01:40:53;;;;;;;;;;;10.50;99.90;;;;;;5088780;28;20406;-66
2023/05/06 01:43:20;;;;;;;;;;;10.50;99.90;;;;;;5090309;28;19924;-66
2023/05/06 01:45:52;;;;;;;;;;;10.50;99.90;;;;;;5088768;28;20399;-66
2023/05/06 01:48:19;;;;;;;;;;;10.50;99.90;;;;;;5090268;28;19928;-66
2023/05/06 01:50:48;;;;;;;;;;;10.40;99.90;;;;;;5090184;28;19950;-66
2023/05/06 01:53:15;;;;;;;;;;;10.40;99.90;;;;;;5088135;28;19931;-65
2023/05/06 01:55:41;;;;;;;;;;;10.40;99.90;;;;;;5084018;28;19928;-66
2023/05/06 01:58:10;;;;;;;;;;;10.30;99.90;;;;;;5090205;28;20353;-66
2023/05/06 02:00:37;;;;;;;;;;;10.30;99.90;;;;;;5089915;28;19924;-67
2023/05/06 02:03:05;;;;;;;;;;;10.30;99.90;;;;;;5084906;28;19928;-66
2023/05/06 02:05:32;;;;;;;;;;;10.20;99.90;;;;;;5090224;28;19935;-66
2023/05/06 02:08:00;;;;;;;;;;;10.20;99.90;;;;;;5090191;28;19924;-67
2023/05/06 02:10:27;;;;;;;;;;;10.20;99.90;;;;;;5090254;28;19924;-67
2023/05/06 02:13:13;;;;;;;;;;;10.10;99.90;;;;;;5090443;28;19924;-67
2023/05/06 02:15:40;;;;;;;;;;;10.20;99.90;;;;;;5089262;28;19924;-67
2023/05/06 02:18:11;;;;;;;;;;;10.10;99.90;;;;;;5090114;28;20348;-67
2023/05/06 02:20:38;;;;;;;;;;;10.10;99.90;;;;;;5086990;28;19928;-66
2023/05/06 02:23:05;;;;;;;;;;;10.10;99.90;;;;;;5090002;28;19924;-66
2023/05/06 02:25:33;;;;;;;;;;;10.10;99.90;;;;;;5090058;28;19928;-67
2023/05/06 02:27:59;;;;;;;;;;;10.00;99.90;;;;;;5089182;28;19924;-66
2023/05/06 02:30:29;;;;;;;;;;;10.00;99.90;;;;;;5086965;28;20394;-67
2023/05/06 02:32:56;;;;;;;;;;;9.90;99.90;;;;;;5093500;28;19924;-67
2023/05/06 02:35:22;;;;;;;;;;;9.90;99.90;;;;;;5090803;28;19928;-66
2023/05/06 02:37:49;;;;;;;;;;;9.80;99.90;;;;;;5093385;28;19924;-67
2023/05/06 02:40:16;;;;;;;;;;;9.70;99.90;;;;;;5091496;28;19928;-68
2023/05/06 02:42:43;;;;;;;;;;;9.70;99.90;;;;;;5089355;28;20386;-67
2023/05/06 02:45:10;;;;;;;;;;;9.80;99.90;;;;;;5093459;28;20372;-68
2023/05/06 02:47:38;;;;;;;;;;;9.80;99.90;;;;;;5093201;28;19924;-68
2023/05/06 02:50:05;;;;;;;;;;;9.70;99.90;;;;;;5093356;28;19928;-68
2023/05/06 02:52:33;;;;;;;;;;;9.80;99.90;;;;;;5093599;28;19928;-67
2023/05/06 02:55:00;;;;;;;;;;;9.70;99.90;;;;;;5093115;28;19924;-67
2023/05/06 02:57:27;;;;;;;;;;;9.70;99.90;;;;;;5092980;28;19924;-68
2023/05/06 02:59:53;;;;;;;;;;;9.70;99.90;;;;;;5093359;28;19928;-68
2023/05/06 03:02:20;;;;;;;;;;;9.70;99.90;;;;;;5093369;28;19924;-67
2023/05/06 03:04:48;;;;;;;;;;;9.60;99.90;;;;;;5093004;28;19928;-68
2023/05/06 03:07:15;;;;;;;;;;;9.60;99.90;;;;;;5091090;28;19924;-67
2023/05/06 03:09:43;;;;;;;;;;;9.50;99.90;;;;;;5093002;28;19924;-66
2023/05/06 03:12:11;;;;;;;;;;;9.60;99.90;;;;;;5089435;28;19946;-68
2023/05/06 03:14:38;;;;;;;;;;;9.60;99.90;;;;;;5091310;28;19934;-66
2023/05/06 03:17:05;;;;;;;;;;;9.60;99.90;;;;;;5090515;28;19928;-67
2023/05/06 03:19:35;;;;;;;;;;;9.60;99.90;;;;;;5092740;28;19930;-67
2023/05/06 03:22:04;;;;;;;;;;;9.70;99.90;;;;;;5089892;28;19924;-66
2023/05/06 03:24:33;;;;;;;;;;;9.60;99.90;;;;;;5092818;28;19924;-69
2023/05/06 03:27:02;;;;;;;;;;;9.60;99.90;;;;;;5092892;28;19928;-67
2023/05/06 03:29:29;;;;;;;;;;;9.60;99.90;;;;;;5089417;28;19929;-68
2023/05/06 03:31:56;;;;;;;;;;;9.70;99.90;;;;;;5092800;28;19924;-67
2023/05/06 03:34:23;;;;;;;;;;;9.70;99.90;;;;;;5091001;28;19931;-67
2023/05/06 03:36:50;;;;;;;;;;;9.70;99.90;;;;;;5091004;28;19925;-67
2023/05/06 03:39:19;;;;;;;;;;;9.60;99.90;;;;;;5089847;28;19924;-68
2023/05/06 03:41:46;;;;;;;;;;;9.50;99.90;;;;;;5092790;28;19924;-67
2023/05/06 03:44:13;;;;;;;;;;;9.50;99.90;;;;;;5092596;28;20015;-67
2023/05/06 03:46:41;;;;;;;;;;;9.50;99.90;;;;;;5092193;28;20023;-67
2023/05/06 03:49:08;;;;;;;;;;;9.40;99.90;;;;;;5092296;28;19930;-67
2023/05/06 03:51:35;;;;;;;;;;;9.40;99.90;;;;;;5092174;28;19964;-68
2023/05/06 03:54:02;;;;;;;;;;;9.30;99.90;;;;;;5092504;28;19924;-67
2023/05/06 03:56:32;;;;;;;;;;;9.30;99.90;;;;;;5088617;28;19967;-67
2023/05/06 03:58:59;;;;;;;;;;;9.40;99.90;;;;;;5092434;28;19963;-67
2023/05/06 04:01:28;;;;;;;;;;;9.30;99.90;;;;;;5091883;28;19924;-67
2023/05/06 04:03:55;;;;;;;;;;;9.30;99.90;;;;;;5092078;28;19924;-68
2023/05/06 04:06:24;;;;;;;;;;;9.30;99.90;;;;;;5091609;28;19935;-68
2023/05/06 04:08:51;;;;;;;;;;;9.30;99.90;;;;;;5089012;28;19931;-67
2023/05/06 04:11:19;;;;;;;;;;;9.30;99.90;;;;;;5092260;28;19973;-69
2023/05/06 04:13:49;;;;;;;;;;;9.30;99.90;;;;;;5084928;28;19946;-67
2023/05/06 04:16:19;;;;;;;;;;;9.20;99.90;;;;;;5091592;28;20022;-67
2023/05/06 04:18:46;;;;;;;;;;;9.20;99.90;;;;;;5091197;28;20434;-66
2023/05/06 04:21:17;;;;;;;;;;;9.10;99.90;;;;;;5091754;28;20315;-67
2023/05/06 04:23:48;;;;;;;;;;;9.10;99.90;;;;;;5089496;28;19932;-68
2023/05/06 04:26:19;;;;;;;;;;;9.20;99.90;;;;;;5091509;28;20027;-66
2023/05/06 04:28:46;;;;;;;;;;;9.20;99.90;;;;;;5091381;28;19931;-67
2023/05/06 04:31:15;;;;;;;;;;;9.30;99.90;;;;;;5089576;28;19924;-67
2023/05/06 04:33:45;;;;;;;;;;;9.30;99.90;;;;;;5091229;28;19924;-66
2023/05/06 04:36:16;;;;;;;;;;;9.30;99.90;;;;;;5091050;28;19928;-67
2023/05/06 04:38:53;;;;;;;;;;;9.30;99.90;;;;;;5090536;28;19931;-67
2023/05/06 04:41:20;;;;;;;;;;;9.30;99.90;;;;;;5086461;28;20019;-67
2023/05/06 04:43:47;;;;;;;;;;;9.30;99.90;;;;;;5089318;28;20003;-67
2023/05/06 04:46:21;;;;;;;;;;;9.30;99.90;;;;;;5090786;28;19928;-67
2023/05/06 04:48:49;;;;;;;;;;;9.40;99.90;;;;;;5090029;28;19969;-67
2023/05/06 04:51:18;;;;;;;;;;;9.40;99.90;;;;;;5091012;28;19927;-66
2023/05/06 04:53:45;;;;;;;;;;;9.50;99.90;;;;;;5090598;28;20369;-67
2023/05/06 04:56:12;;;;;;;;;;;9.50;99.90;;;;;;5090800;28;19931;-67
2023/05/06 04:58:39;;;;;;;;;;;9.50;99.90;;;;;;5090890;28;19924;-66
2023/05/06 05:01:07;;;;;;;;;;;9.60;99.90;;;;;;5090245;28;19924;-66
2023/05/06 05:03:36;;;;;;;;;;;9.70;99.90;;;;;;5084607;28;19931;-66
2023/05/06 05:06:04;;;;;;;;;;;9.80;99.90;;;;;;5075538;28;19932;-66
2023/05/06 05:08:31;;;;;;;;;;;9.80;99.90;;;;;;5079794;28;19931;-66
2023/05/06 05:10:58;;;;;;;;;;;9.90;99.90;;;;;;5079590;28;19924;-66
2023/05/06 05:13:27;;;;;;;;;;;9.90;99.90;;;;;;5084689;28;19925;-66
2023/05/06 05:15:55;;;;;;;;;;;10.00;99.90;;;;;;5075847;28;19947;-67
2023/05/06 05:18:24;;;;;;;;;;;10.10;99.90;;;;;;5086776;28;20376;-67
2023/05/06 05:20:56;;;;;;;;;;;10.10;99.90;;;;;;5080812;28;19955;-67
2023/05/06 05:23:24;;;;;;;;;;;10.20;99.90;;;;;;5090670;28;19924;-66
2023/05/06 05:25:51;;;;;;;;;;;10.30;99.90;;;;;;5090454;28;19959;-67
2023/05/06 05:28:17;;;;;;;;;;;10.40;99.90;;;;;;5088836;28;19924;-67
2023/05/06 05:30:45;;;;;;;;;;;10.50;99.90;;;;;;5090593;28;19924;-67
2023/05/06 05:33:11;;;;;;;;;;;10.60;99.90;;;;;;5090689;28;19924;-67
2023/05/06 05:35:39;;;;;;;;;;;10.70;99.90;;;;;;5090274;28;19924;-67
2023/05/06 05:38:07;;;;;;;;;;;10.70;99.90;;;;;;5090479;28;19932;-67
2023/05/06 05:40:35;;;;;;;;;;;10.90;99.90;;;;;;5089014;28;19924;-67
2023/05/06 05:43:03;;;;;;;;;;;11.00;99.90;;;;;;5090238;28;19956;-67
2023/05/06 05:45:35;;;;;;;;;;;11.00;99.90;;;;;;5090207;28;20346;-69
2023/05/06 05:48:02;;;;;;;;;;;11.10;99.90;;;;;;5090073;28;20423;-67
2023/05/06 05:50:29;;;;;;;;;;;11.30;99.90;;;;;;5090538;28;19931;-67
2023/05/06 05:52:57;;;;;;;;;;;11.40;99.90;;;;;;5086840;28;20023;-68
2023/05/06 05:55:29;;;;;;;;;;;11.40;99.90;;;;;;5090366;28;19978;-67
2023/05/06 05:57:56;;;;;;;;;;;11.50;99.90;;;;;;5090211;28;19924;-67
2023/05/06 06:00:24;;;;;;;;;;;11.60;99.90;;;;;;5090017;28;20015;-68
2023/05/06 06:02:58;;;;;;;;;;;11.80;99.90;;;;;;5090075;28;20026;-67
2023/05/06 06:05:24;;;;;;;;;;;11.90;99.90;;;;;;5089776;28;19932;-66
2023/05/06 06:07:51;;;;;;;;;;;12.00;99.90;;;;;;5092622;28;19928;-68
2023/05/06 06:10:18;;;;;;;;;;;12.10;99.90;;;;;;5089985;28;20034;-66
2023/05/06 06:12:47;;;;;;;;;;;12.30;99.90;;;;;;5093960;28;19950;-67
2023/05/06 06:15:18;;;;;;;;;;;12.40;99.90;;;;;;5087723;28;19931;-67
2023/05/06 06:17:46;;;;;;;;;;;12.50;99.90;;;;;;5093649;28;19924;-67
2023/05/06 06:20:13;;;;;;;;;;;12.50;99.90;;;;;;5093989;28;19924;-67
2023/05/06 06:22:40;;;;;;;;;;;12.60;99.90;;;;;;5093827;28;19935;-66
2023/05/06 06:25:07;;;;;;;;;;;12.70;99.90;;;;;;5093814;28;19924;-67
2023/05/06 06:27:34;;;;;;;;;;;12.80;99.90;;;;;;5093386;28;20302;-67
2023/05/06 06:30:03;;;;;;;;;;;12.90;99.90;;;;;;5093402;28;19928;-67
2023/05/06 06:32:30;;;;;;;;;;;12.90;99.90;;;;;;5093999;28;19931;-68
2023/05/06 06:34:57;;;;;;;;;;;13.00;99.90;;;;;;5093414;28;19924;-68
2023/05/06 06:37:23;;;;;;;;;;;13.10;99.90;;;;;;5091414;28;19924;-67
2023/05/06 06:39:50;;;;;;;;;;;13.20;99.90;;;;;;5091698;28;19924;-67
2023/05/06 06:42:17;;;;;;;;;;;13.30;99.90;;;;;;5093581;28;19924;-67
2023/05/06 06:45:07;;;;;;;;;;;13.40;99.90;;;;;;5089426;28;19931;-67
2023/05/06 06:47:34;;;;;;;;;;;13.60;99.90;;;;;;5084734;28;20390;-68
2023/05/06 06:50:01;;;;;;;;;;;13.60;99.90;;;;;;5089063;28;19929;-68
2023/05/06 06:52:27;;;;;;;;;;;13.70;99.90;;;;;;5089064;28;19926;-67
2023/05/06 06:54:54;;;;;;;;;;;13.90;99.90;;;;;;5093127;28;19924;-67
2023/05/06 06:57:21;;;;;;;;;;;13.90;99.90;;;;;;5092913;28;19973;-66
2023/05/06 06:59:50;;;;;;;;;;;14.00;99.90;;;;;;5093015;28;19924;-67
2023/05/06 07:02:18;;;;;;;;;;;14.10;99.90;;;;;;5092736;28;19935;-67
2023/05/06 07:04:45;;;;;;;;;;;14.30;99.90;;;;;;5092815;28;20303;-67
2023/05/06 07:07:12;;;;;;;;;;;14.40;99.90;;;;;;5093058;28;19989;-67
2023/05/06 07:09:39;;;;;;;;;;;14.50;99.90;;;;;;5093019;28;19977;-68
2023/05/06 07:12:06;;;;;;;;;;;14.60;99.90;;;;;;5092411;28;19932;-67
2023/05/06 07:14:33;;;;;;;;;;;14.70;99.90;;;;;;5089873;28;19928;-66
2023/05/06 07:17:00;;;;;;;;;;;14.80;99.90;;;;;;5089948;28;19928;-67
2023/05/06 07:19:28;;;;;;;;;;;14.90;99.90;;;;;;5092607;28;20276;-67
2023/05/06 07:21:55;;;;;;;;;;;15.00;99.90;;;;;;5089651;28;20383;-68
2023/05/06 07:24:22;;;;;;;;;;;15.10;99.90;;;;;;5092719;28;20380;-68
2023/05/06 07:26:49;;;;;;;;;;;15.30;99.90;;;;;;5092831;28;19928;-68
2023/05/06 07:29:16;;;;;;;;;;;15.40;99.90;;;;;;5092249;28;19973;-67
2023/05/06 07:31:42;;;;;;;;;;;15.50;99.90;;;;;;5092412;28;20024;-67
2023/05/06 07:34:09;;;;;;;;;;;15.60;99.90;;;;;;5092250;28;19924;-67
2023/05/06 07:36:39;;;;;;;;;;;15.70;99.90;;;;;;5092244;28;19927;-66
2023/05/06 07:39:06;;;;;;;;;;;15.80;99.90;;;;;;5092264;28;19931;-67
2023/05/06 07:41:33;;;;;;;;;;;15.80;99.90;;;;;;5089625;28;19935;-66
2023/05/06 07:43:59;;;;;;;;;;;15.90;99.90;;;;;;5092142;28;19964;-66
2023/05/06 07:46:26;;;;;;;;;;;15.80;99.90;;;;;;5090335;28;20391;-66
2023/05/06 07:48:53;;;;;;;;;;;15.90;99.90;;;;;;5092480;28;19927;-72
2023/05/06 07:51:20;;;;;;;;;;;16.00;99.90;;;;;;5090816;28;20457;-68
2023/05/06 07:53:48;;;;;;;;;;;16.10;99.90;;;;;;5089159;28;19924;-67
2023/05/06 07:56:15;;;;;;;;;;;16.20;99.90;;;;;;5091005;28;19935;-68
2023/05/06 07:58:41;;;;;;;;;;;16.20;99.90;;;;;;5092221;28;19924;-68
2023/05/06 08:01:08;;;;;;;;;;;16.20;99.90;;;;;;5091781;28;20329;-67
2023/05/06 08:03:35;;;;;;;;;;;16.40;99.90;;;;;;5092230;28;19924;-67
2023/05/06 08:06:02;;;;;;;;;;;16.40;99.90;;;;;;5091040;28;19924;-68
2023/05/06 08:08:29;;;;;;;;;;;16.50;99.90;;;;;;5091484;28;20354;-69
2023/05/06 08:10:58;;;;;;;;;;;16.70;99.90;;;;;;5090309;28;19940;-68
2023/05/06 08:13:25;;;;;;;;;;;16.80;99.90;;;;;;5091153;28;19928;-68
2023/05/06 08:15:51;;;;;;;;;;;16.80;99.90;;;;;;5087484;28;19974;-69
2023/05/06 08:18:18;;;;;;;;;;;16.90;99.90;;;;;;5088742;28;19924;-68
2023/05/06 08:20:45;;;;;;;;;;;16.90;99.90;;;;;;5089548;28;19924;-68
2023/05/06 08:23:12;;;;;;;;;;;17.10;99.90;;;;;;5086150;28;19932;-68
2023/05/06 08:25:38;;;;;;;;;;;17.20;99.90;;;;;;5089755;28;19954;-68
2023/05/06 08:28:07;;;;;;;;;;;17.30;99.90;;;;;;5086345;28;19979;-69
2023/05/06 08:30:33;;;;;;;;;;;17.40;99.90;;;;;;5085350;28;19936;-68
2023/05/06 08:33:00;;;;;;;;;;;17.40;99.90;;;;;;5090110;28;19933;-68
2023/05/06 08:35:27;;;;;;;;;;;17.50;99.90;;;;;;5090340;28;19928;-68
2023/05/06 08:37:54;;;;;;;;;;;17.60;99.90;;;;;;5089053;28;20338;-67
2023/05/06 08:40:22;;;;;;;;;;;17.80;99.90;;;;;;5090279;28;20416;-68
2023/05/06 08:42:49;;;;;;;;;;;17.80;99.90;;;;;;5090406;28;19928;-68
2023/05/06 08:45:18;;;;;;;;;;;17.90;99.90;;;;;;5090129;28;19931;-68
2023/05/06 08:47:46;;;;;;;;;;;18.10;99.90;;;;;;5089846;28;19924;-68
2023/05/06 08:50:12;;;;;;;;;;;18.10;99.90;;;;;;5089676;28;19928;-68
2023/05/06 08:52:39;;;;;;;;;;;18.30;99.90;;;;;;5089900;28;19974;-68
2023/05/06 08:55:07;;;;;;;;;;;18.40;99.90;;;;;;5087185;28;19924;-68
2023/05/06 08:57:35;;;;;;;;;;;18.60;99.90;;;;;;5083403;28;19924;-67
2023/05/06 09:00:03;;;;;;;;;;;18.80;99.90;;;;;;5089905;28;19924;-68
2023/05/06 09:02:31;;;;;;;;;;;18.80;99.90;;;;;;5084576;28;19990;-68
2023/05/06 09:04:59;;;;;;;;;;;18.90;99.90;;;;;;5088530;28;19924;-68
2023/05/06 09:07:26;;;;;;;;;;;19.00;99.90;;;;;;5089485;28;19967;-68
2023/05/06 09:09:52;;;;;;;;;;;19.10;99.90;;;;;;5089816;28;19924;-68
2023/05/06 09:12:19;;;;;;;;;;;18.90;99.90;;;;;;5089768;28;19924;-67
2023/05/06 09:14:49;;;;;;;;;;;19.10;99.90;;;;;;5083030;28;19928;-67
2023/05/06 09:17:25;;;;;;;;;;;19.20;99.90;;;;;;5089611;28;19928;-68
2023/05/06 09:19:55;;;;;;;;;;;19.40;99.90;;;;;;5085345;28;20276;-68
2023/05/06 09:22:22;;;;;;;;;;;19.60;99.90;;;;;;5088183;28;19963;-68
2023/05/06 09:24:55;;;;;;;;;;;19.90;99.90;;;;;;5084503;28;19970;-68
2023/05/06 09:27:22;;;;;;;;;;;20.20;99.90;;;;;;5088816;28;19924;-68
2023/05/06 09:29:59;;;;;;;;;;;20.40;99.90;;;;;;5089218;28;19970;-68
2023/05/06 09:32:26;;;;;;;;;;;20.60;99.90;;;;;;5086842;28;19947;-68
2023/05/06 09:34:54;;;;;;;;;;;20.70;99.90;;;;;;5089589;28;19924;-68
2023/05/06 09:37:21;;;;;;;;;;;20.80;99.90;;;;;;5089648;28;19962;-68
2023/05/06 09:39:48;;;;;;;;;;;20.80;99.90;;;;;;5091005;28;19973;-68
2023/05/06 09:42:16;;;;;;;;;;;20.90;99.90;;;;;;5093953;28;19928;-68
2023/05/06 09:44:43;;;;;;;;;;;20.90;99.90;;;;;;5093785;28;19924;-67
2023/05/06 09:47:10;;;;;;;;;;;20.80;99.90;;;;;;5088092;28;20361;-68
2023/05/06 09:49:37;;;;;;;;;;;21.10;99.90;;;;;;5093854;28;19928;-68
2023/05/06 09:52:06;;;;;;;;;;;21.50;99.90;;;;;;5088910;28;19924;-68
2023/05/06 09:54:33;;;;;;;;;;;22.00;99.90;;;;;;5089783;28;20444;-66
2023/05/06 09:57:00;;;;;;;;;;;22.30;99.90;;;;;;5093552;28;19924;-66
2023/05/06 09:59:28;;;;;;;;;;;22.20;99.90;;;;;;5089518;28;20386;-67
2023/05/06 10:01:55;;;;;;;;;;;21.80;99.90;;;;;;5088702;28;19924;-67
2023/05/06 10:04:24;;;;;;;;;;;21.80;99.90;;;;;;5086295;28;19936;-67
2023/05/06 10:06:51;;;;;;;;;;;21.80;99.90;;;;;;5093669;28;20302;-67
2023/05/06 10:09:21;;;;;;;;;;;22.50;99.90;;;;;;5092893;28;20394;-67
2023/05/06 10:11:49;;;;;;;;;;;22.90;99.90;;;;;;5092818;28;20337;-67
2023/05/06 10:14:15;;;;;;;;;;;22.60;99.90;;;;;;5087011;28;19924;-67
2023/05/06 10:16:42;;;;;;;;;;;22.20;99.90;;;;;;5093397;28;19932;-67
2023/05/06 10:19:09;;;;;;;;;;;22.60;99.90;;;;;;5092627;28;20349;-65
2023/05/06 10:21:39;;;;;;;;;;;23.00;99.90;;;;;;5091132;28;19924;-67
2023/05/06 10:24:07;;;;;;;;;;;23.20;99.90;;;;;;5088668;28;19993;-65
2023/05/06 10:26:35;;;;;;;;;;;23.40;99.90;;;;;;5092731;28;19931;-67
2023/05/06 10:29:04;;;;;;;;;;;23.30;99.90;;;;;;5092820;28;19925;-68
2023/05/06 10:31:32;;;;;;;;;;;23.40;99.90;;;;;;5092529;28;19924;-68
2023/05/06 10:34:01;;;;;;;;;;;23.60;99.90;;;;;;5092430;28;19927;-68
2023/05/06 10:36:30;;;;;;;;;;;23.80;99.90;;;;;;5091727;28;19925;-68
2023/05/06 10:38:59;;;;;;;;;;;24.00;99.90;;;;;;5090572;28;19935;-67
2023/05/06 10:41:27;;;;;;;;;;;24.00;99.90;;;;;;5092645;28;20027;-68
2023/05/06 10:43:56;;;;;;;;;;;24.10;99.90;;;;;;5092650;28;19959;-67
2023/05/06 10:46:24;;;;;;;;;;;24.30;99.90;;;;;;5092235;28;19928;-67
2023/05/06 10:49:10;;;;;;;;;;;24.40;99.90;;;;;;5092440;28;19924;-68
2023/05/06 10:51:41;;;;;;;;;;;24.30;99.90;;;;;;5085566;28;19932;-67
2023/05/06 10:54:09;;;;;;;;;;;24.30;99.90;;;;;;5086702;28;20498;-68
2023/05/06 10:56:36;;;;;;;;;;;24.30;99.90;;;;;;5093620;28;20009;-69
2023/05/06 10:59:06;;;;;;;;;;;23.70;99.90;;;;;;5089022;28;19932;-68
2023/05/06 11:01:35;;;;;;;;;;;23.40;99.90;;;;;;5092196;28;20391;-69
2023/05/06 11:04:05;;;;;;;;;;;23.70;99.90;;;;;;5089519;28;19977;-68
2023/05/06 11:06:33;;;;;;;;;;;23.70;99.90;;;;;;5091624;28;19931;-69
2023/05/06 11:09:00;;;;;;;;;;;23.60;99.90;;;;;;5092252;28;19931;-68
2023/05/06 11:11:46;;;;;;;;;;;23.50;99.90;;;;;;5091813;28;20031;-68
2023/05/06 11:14:12;;;;;;;;;;;23.10;99.90;;;;;;5085205;28;19931;-68
2023/05/06 11:16:50;;;;;;;;;;;23.00;99.90;;;;;;5087900;28;19924;-68
2023/05/06 11:19:19;;;;;;;;;;;23.10;99.90;;;;;;5091960;28;19970;-68
2023/05/06 11:21:45;;;;;;;;;;;23.50;99.90;;;;;;5091852;28;20418;-68
2023/05/06 11:24:13;;;;;;;;;;;24.00;99.90;;;;;;5091684;28;19924;-68
2023/05/06 11:26:44;;;;;;;;;;;24.50;99.90;;;;;;5084449;28;19963;-68
2023/05/06 11:29:10;;;;;;;;;;;24.90;99.90;;;;;;5091938;28;20019;-69
2023/05/06 11:31:41;;;;;;;;;;;25.70;99.90;;;;;;5084375;28;19974;-68
2023/05/06 11:34:10;;;;;;;;;;;26.40;99.90;;;;;;5088236;28;19949;-67
2023/05/06 11:36:44;;;;;;;;;;;27.80;99.90;;;;;;5085591;28;19993;-68
2023/05/06 11:39:11;;;;;;;;;;;28.90;99.90;;;;;;5091388;28;19928;-68
2023/05/06 11:41:39;;;;;;;;;;;29.00;99.90;;;;;;5088965;28;19924;-68
2023/05/06 11:44:05;;;;;;;;;;;27.70;99.90;;;;;;5089800;28;19924;-68
2023/05/06 11:46:33;;;;;;;;;;;26.90;99.90;;;;;;5091085;28;19932;-68
2023/05/06 11:48:59;;;;;;;;;;;26.20;99.90;;;;;;5090655;28;19928;-68
2023/05/06 11:51:28;;;;;;;;;;;25.20;99.90;;;;;;5090870;28;19998;-67
2023/05/06 11:54:03;;;;;;;;;;;24.30;99.90;;;;;;5088240;28;19931;-68
2023/05/06 11:56:30;;;;;;;;;;;23.50;99.90;;;;;;5090852;28;19924;-68
2023/05/06 11:58:57;;;;;;;;;;;23.30;99.90;;;;;;5088921;28;19927;-69
2023/05/06 12:01:24;;;;;;;;;;;23.20;99.90;;;;;;5089711;28;19924;-68
2023/05/06 12:03:54;;;;;;;;;;;23.10;99.90;;;;;;5089756;28;20406;-68
2023/05/06 12:06:32;;;;;;;;;;;23.20;99.90;;;;;;5089007;28;19928;-66
2023/05/06 12:09:00;;;;;;;;;;;23.60;99.90;;;;;;5090384;28;19978;-68
2023/05/06 12:11:27;;;;;;;;;;;23.70;99.90;;;;;;5085487;28;19924;-69
2023/05/06 12:13:53;;;;;;;;;;;23.60;99.90;;;;;;5090676;28;19924;-68
2023/05/06 12:16:21;;;;;;;;;;;23.20;99.90;;;;;;5086872;28;19928;-68
2023/05/06 12:18:48;;;;;;;;;;;22.90;99.90;;;;;;5084486;28;20023;-68
2023/05/06 12:21:21;;;;;;;;;;;23.00;99.90;;;;;;5087435;28;19978;-68
2023/05/06 12:23:52;;;;;;;;;;;22.90;99.90;;;;;;5090470;28;19928;-68
2023/05/06 12:26:20;;;;;;;;;;;22.60;99.90;;;;;;5090190;28;19972;-68
2023/05/06 12:28:46;;;;;;;;;;;22.30;99.90;;;;;;5090753;28;19931;-68
2023/05/06 12:31:20;;;;;;;;;;;22.10;99.90;;;;;;5081897;28;20379;-68
2023/05/06 12:33:47;;;;;;;;;;;22.00;99.90;;;;;;5090282;28;20398;-68
2023/05/06 12:36:14;;;;;;;;;;;21.80;99.90;;;;;;5083648;28;19931;-69
2023/05/06 12:38:49;;;;;;;;;;;21.60;99.90;;;;;;5090639;28;19925;-68
2023/05/06 12:41:18;;;;;;;;;;;21.40;99.90;;;;;;5085040;28;19928;-68
2023/05/06 12:43:45;;;;;;;;;;;21.30;99.90;;;;;;5088085;28;19924;-69
2023/05/06 12:46:12;;;;;;;;;;;21.00;99.90;;;;;;5089927;28;19935;-67
2023/05/06 12:48:39;;;;;;;;;;;20.90;99.90;;;;;;5083061;28;19923;-67
2023/05/06 12:51:18;;;;;;;;;;;20.80;99.90;;;;;;5086599;28;20019;-68
2023/05/06 12:53:45;;;;;;;;;;;20.70;99.90;;;;;;5089672;28;19952;-67
2023/05/06 12:56:12;;;;;;;;;;;20.70;99.90;;;;;;5089664;28;19924;-68
2023/05/06 12:58:40;;;;;;;;;;;20.50;99.90;;;;;;5088874;28;19932;-68
2023/05/06 13:01:07;;;;;;;;;;;20.50;99.90;;;;;;5085882;28;19924;-69
2023/05/06 13:03:34;;;;;;;;;;;20.40;99.90;;;;;;5089728;28;19924;-68
2023/05/06 13:06:01;;;;;;;;;;;20.20;99.90;;;;;;5086776;28;19928;-68
2023/05/06 13:08:28;;;;;;;;;;;20.10;99.90;;;;;;5081512;28;19974;-68
2023/05/06 13:10:55;;;;;;;;;;;19.90;99.90;;;;;;5086743;28;19928;-68
2023/05/06 13:13:21;;;;;;;;;;;19.50;99.90;;;;;;5087635;28;19924;-67
2023/05/06 13:15:50;;;;;;;;;;;19.10;99.90;;;;;;5087454;28;19935;-68
2023/05/06 13:18:16;;;;;;;;;;;18.80;99.90;;;;;;5082971;28;20457;-68
2023/05/06 13:20:44;;;;;;;;;;;18.20;99.90;;;;;;5088845;28;19924;-69
2023/05/06 13:23:11;;;;;;;;;;;17.60;99.90;;;;;;5080659;28;20017;-69
2023/05/06 13:25:40;;;;;;;;;;;17.30;99.90;;;;;;5080619;28;20385;-69
2023/05/06 13:28:06;;;;;;;;;;;16.90;99.90;;;;;;5090172;28;19924;-68
2023/05/06 13:30:33;;;;;;;;;;;16.80;99.90;;;;;;5089349;28;19932;-69
2023/05/06 13:33:01;;;;;;;;;;;16.60;99.90;;;;;;5088045;28;20468;-68
2023/05/06 13:35:29;;;;;;;;;;;16.60;99.90;;;;;;5090251;28;20366;-67
2023/05/06 13:37:56;;;;;;;;;;;16.80;99.90;;;;;;5090352;28;19924;-67
2023/05/06 13:40:22;;;;;;;;;;;16.80;99.90;;;;;;5090284;28;20457;-69
2023/05/06 13:42:49;;;;;;;;;;;16.90;99.90;;;;;;5082708;28;20336;-69
2023/05/06 13:45:16;;;;;;;;;;;17.00;99.90;;;;;;5083342;28;19971;-69
2023/05/06 13:47:43;;;;;;;;;;;17.20;99.90;;;;;;5082957;28;19924;-67
2023/05/06 13:50:11;;;;;;;;;;;17.20;99.90;;;;;;5090337;28;19924;-68
2023/05/06 13:52:38;;;;;;;;;;;17.30;99.90;;;;;;5090435;28;19932;-69
2023/05/06 13:55:05;;;;;;;;;;;17.50;99.90;;;;;;5090174;28;20006;-67
2023/05/06 13:57:32;;;;;;;;;;;17.80;99.90;;;;;;5082700;28;19969;-66
2023/05/06 13:59:59;;;;;;;;;;;18.00;99.90;;;;;;5089699;28;19961;-68
2023/05/06 14:02:26;;;;;;;;;;;18.20;99.90;;;;;;5088617;28;20427;-68
2023/05/06 14:04:53;;;;;;;;;;;18.30;99.90;;;;;;5088048;28;19931;-69
2023/05/06 14:07:22;;;;;;;;;;;18.40;99.90;;;;;;5086914;28;20337;-66
2023/05/06 14:09:48;;;;;;;;;;;18.50;99.90;;;;;;5089084;28;19928;-68
2023/05/06 14:12:16;;;;;;;;;;;18.70;99.90;;;;;;5087226;28;20299;-67
2023/05/06 14:14:42;;;;;;;;;;;18.80;99.90;;;;;;5089140;28;19924;-69
2023/05/06 14:17:09;;;;;;;;;;;19.00;99.90;;;;;;5084997;28;20349;-68
2023/05/06 14:19:36;;;;;;;;;;;19.10;99.90;;;;;;5086872;28;19932;-69
2023/05/06 14:22:03;;;;;;;;;;;19.30;99.90;;;;;;5088427;28;19993;-68
2023/05/06 14:24:31;;;;;;;;;;;19.40;99.90;;;;;;5083191;28;19929;-70